KB3FCJ-2 Weather Reports


Display with metric or nautical units.
time (UTC)temp
F
wind
direction
speed
MPH
gust
MPH
rain 1hr
in
rain 24hr
in
rain mn
in
humidity
%
barometer
mb
20220624225705 80 0 0.0 3.0 0.00 0.00 0.00 68 1017.1
20220624224706 81 0 0.0 2.0 0.00 0.00 0.00 69 1017.1
20220624223204 80 0 0.0 2.0 0.00 0.00 0.00 67 1017.0
20220624222205 80 0 0.0 1.0 0.00 0.00 0.00 69 1017.0
20220624221204 79 0 0.0 3.0 0.00 0.00 0.00 70 1017.1
20220624220205 80 0 0.0 6.0 0.00 0.00 0.00 69 1017.1
20220624214703 80 0 0.0 3.0 0.00 0.00 0.00 69 1017.0
20220624213704 79 0 0.0 3.0 0.00 0.00 0.00 70 1017.2
20220624212703 79 0 0.0 4.0 0.00 0.00 0.00 69 1017.2
20220624211704 80 0 0.0 2.0 0.00 0.00 0.00 72 1017.1
20220624210207 79 0 0.0 5.0 0.00 0.00 0.00 70 1017.2
20220624205207 77 0 0.0 4.0 0.00 0.00 0.00 72 1017.1
20220624204206 78 0 0.0 6.0 0.00 0.00 0.00 69 1017.2
20220624203207 78 0 0.0 4.0 0.00 0.00 0.00 71 1017.1
20220624201710 77 0 0.0 5.0 0.00 0.00 0.00 73 1017.1
20220624200710 77 0 0.0 2.0 0.00 0.00 0.00 72 1017.2
20220624195710 77 271 1.0 3.0 0.00 0.00 0.00 73 1017.2
20220624194710 79 0 0.0 2.0 0.00 0.00 0.00 69 1017.3
20220624193231 77 245 2.0 6.0 0.00 0.00 0.00 71 1017.4
20220624192231 76 0 0.0 1.0 0.00 0.00 0.00 75 1017.3
20220624191231 76 317 1.0 3.0 0.00 0.00 0.00 71 1017.3
20220624190231 75 0 0.0 5.0 0.00 0.00 0.00 73 1017.4
20220624184726 76 0 0.0 3.0 0.00 0.00 0.00 73 1017.6
20220624183726 76 0 0.0 6.0 0.00 0.00 0.00 74 1017.5
20220624182726 76 0 0.0 2.0 0.00 0.00 0.00 75 1017.6
20220624181726 74 0 0.0 6.0 0.00 0.00 0.00 77 1017.6
20220624180225 74 318 2.0 6.0 0.00 0.00 0.00 77 1017.8
20220624175225 75 0 0.0 1.0 0.00 0.00 0.00 75 1017.8
20220624174225 73 0 0.0 8.0 0.00 0.00 0.00 77 1017.8
20220624173225 74 246 3.0 7.0 0.00 0.00 0.00 77 1017.9
20220624171723 74 0 0.0 3.0 0.00 0.00 0.00 76 1018.1
20220624170722 73 342 4.0 8.0 0.00 0.00 0.00 76 1018.3
20220624165722 73 231 1.0 5.0 0.00 0.00 0.00 75 1018.2
20220624164722 73 253 2.0 7.0 0.00 0.00 0.00 75 1018.2
20220624163222 73 0 0.0 3.0 0.00 0.00 0.00 75 1018.2
20220624162221 73 341 3.0 6.0 0.00 0.00 0.00 76 1018.4
20220624161222 74 331 1.0 5.0 0.00 0.00 0.00 75 1018.4
20220624160221 73 0 0.0 6.0 0.00 0.00 0.00 77 1018.3
20220624154722 72 324 1.0 5.0 0.00 0.01 0.00 77 1018.3
20220624153722 72 0 0.0 2.0 0.00 0.01 0.00 76 1018.3
20220624152723 72 260 3.0 9.0 0.00 0.01 0.00 76 1018.3
20220624151722 72 0 0.0 8.0 0.00 0.03 0.00 77 1018.1
20220624150221 71 0 0.0 8.0 0.00 0.05 0.00 77 1018.0
20220624145222 71 0 0.0 4.0 0.00 0.05 0.00 77 1018.0
20220624144221 71 0 0.0 3.0 0.00 0.05 0.00 77 1018.0
20220624143221 71 312 1.0 4.0 0.00 0.06 0.00 76 1017.9
20220624141712 71 0 0.0 1.0 0.00 0.08 0.00 76 1017.9
20220624140713 71 0 0.0 2.0 0.00 0.11 0.00 78 1017.8
20220624135712 71 0 0.0 2.0 0.00 0.15 0.00 76 1017.7
20220624134713 71 0 0.0 1.0 0.00 0.17 0.00 80 1017.8
20220624133207 69 0 0.0 2.0 0.00 0.20 0.00 82 1017.8
20220624132208 70 0 0.0 1.0 0.00 0.23 0.00 83 1017.7
20220624131207 70 0 0.0 1.0 0.00 0.25 0.00 80 1017.6
20220624130208 70 0 0.0 0.0 0.00 0.26 0.00 83 1017.6
20220624124707 69 0 0.0 1.0 0.00 0.27 0.00 85 1017.6
20220624123707 68 0 0.0 1.0 0.00 0.28 0.00 87 1017.5
20220624122709 68 0 0.0 1.0 0.00 0.28 0.00 89 1017.3
20220624121707 67 0 0.0 0.0 0.00 0.29 0.00 88 1017.3
20220624120206 65 0 0.0 1.0 0.00 0.30 0.00 90 1017.2
20220624115206 65 0 0.0 1.0 0.00 0.32 0.00 91 1017.2
20220624114208 64 0 0.0 1.0 0.00 0.33 0.00 94 1017.2
20220624113206 63 0 0.0 1.0 0.00 0.33 0.00 95 1017.2
20220624111705 61 0 0.0 0.0 0.00 0.33 0.00 96 1017.1
20220624110704 60 0 0.0 0.0 0.00 0.33 0.00 96 1017.2
20220624105705 59 0 0.0 1.0 0.00 0.33 0.00 96 1017.2
20220624104705 59 0 0.0 0.0 0.00 0.33 0.00 96 1017.2
20220624103204 58 0 0.0 0.0 0.00 0.33 0.00 95 1017.1
20220624102204 58 0 0.0 0.0 0.00 0.34 0.00 95 1017.0
20220624101204 58 0 0.0 0.0 0.00 0.34 0.00 95 1016.8
20220624100204 58 0 0.0 0.0 0.00 0.34 0.00 95 1016.8
20220624094703 58 0 0.0 0.0 0.00 0.34 0.00 95 1016.5
20220624093703 58 0 0.0 0.0 0.00 0.35 0.00 95 1016.6
20220624092703 59 0 0.0 0.0 0.00 0.36 0.00 95 1016.4
20220624091703 59 0 0.0 0.0 0.00 0.38 0.00 94 1016.3
20220624090154 59 0 0.0 0.0 0.00 0.39 0.00 94 1016.1
20220624085154 59 0 0.0 0.0 0.00 0.39 0.00 94 1016.1
20220624084154 59 0 0.0 0.0 0.00 0.39 0.00 94 1016.0
20220624083154 59 0 0.0 0.0 0.00 0.39 0.00 94 1016.0
20220624081652 60 0 0.0 0.0 0.00 0.39 0.00 94 1015.7
20220624080651 60 0 0.0 0.0 0.00 0.40 0.00 94 1015.7
20220624075652 60 0 0.0 0.0 0.00 0.40 0.00 94 1015.7
20220624074651 60 0 0.0 0.0 0.00 0.40 0.00 94 1015.7
20220624073151 60 0 0.0 0.0 0.00 0.41 0.00 94 1015.7
20220624072150 60 0 0.0 0.0 0.00 0.41 0.00 94 1015.7
20220624071151 60 0 0.0 0.0 0.00 0.42 0.00 94 1015.6
20220624070150 60 0 0.0 0.0 0.00 0.42 0.00 94 1015.5
20220624064649 60 0 0.0 0.0 0.00 0.42 0.00 94 1015.5
20220624063650 61 0 0.0 0.0 0.00 0.43 0.00 94 1015.6
20220624062649 61 0 0.0 0.0 0.00 0.43 0.00 94 1015.6
20220624061649 61 0 0.0 0.0 0.00 0.44 0.00 94 1015.6
20220624060148 61 0 0.0 0.0 0.00 0.47 0.00 94 1015.5
20220624055149 61 0 0.0 0.0 0.00 0.50 0.00 94 1015.6
20220624054148 61 0 0.0 0.0 0.00 0.54 0.00 94 1015.6
20220624053149 61 0 0.0 0.0 0.00 0.55 0.00 94 1015.7
20220624051635 61 0 0.0 0.0 0.00 0.62 0.00 94 1015.6
20220624050636 61 0 0.0 0.0 0.00 0.65 0.00 94 1015.6
20220624045635 61 0 0.0 0.0 0.00 0.68 0.00 94 1015.6
20220624044636 61 0 0.0 0.0 0.00 0.72 0.00 94 1015.7
20220624043136 61 0 0.0 0.0 0.00 0.77 0.00 94 1015.7
20220624042137 61 0 0.0 0.0 0.00 0.80 0.00 94 1015.6
20220624041136 62 0 0.0 0.0 0.00 0.82 0.00 94 1015.6
20220624040137 62 0 0.0 1.0 0.00 0.83 0.82 93 1015.6
20220624034636 62 0 0.0 0.0 0.00 0.85 0.82 93 1015.7
20220624033636 62 0 0.0 0.0 0.00 0.86 0.82 93 1015.6
20220624032636 62 0 0.0 0.0 0.00 0.87 0.82 92 1015.5
20220624031636 63 0 0.0 0.0 0.00 0.87 0.82 92 1015.4
20220624030135 63 0 0.0 0.0 0.00 0.88 0.82 92 1015.5
20220624025135 63 0 0.0 0.0 0.00 0.89 0.82 92 1015.4
20220624024135 64 0 0.0 0.0 0.00 0.92 0.82 92 1015.4
20220624023135 64 0 0.0 0.0 0.00 0.94 0.82 91 1015.5
20220624021656 64 0 0.0 0.0 0.00 0.95 0.82 91 1015.6
20220624020656 64 0 0.0 0.0 0.00 0.99 0.82 90 1015.7
20220624015656 65 0 0.0 1.0 0.00 1.07 0.82 90 1015.6
20220624014656 65 0 0.0 1.0 0.00 1.08 0.82 89 1015.5
20220624013151 65 0 0.0 1.0 0.00 1.12 0.82 88 1015.4
20220624012151 66 0 0.0 0.0 0.00 1.12 0.82 87 1015.2
20220624011151 66 0 0.0 0.0 0.00 1.12 0.82 86 1014.9
20220624010151 67 0 0.0 0.0 0.00 1.12 0.82 85 1014.8
20220624004649 67 0 0.0 3.0 0.00 1.22 0.82 84 1014.7
20220624003648 68 0 0.0 1.0 0.00 1.26 0.82 83 1014.6
20220624002648 68 0 0.0 1.0 0.00 1.29 0.82 83 1014.6
20220624001648 69 0 0.0 2.0 0.00 1.29 0.82 82 1014.7
20220624000147 69 0 0.0 3.0 0.00 1.30 0.82 82 1014.7
20220623235147 69 0 0.0 1.0 0.00 1.30 0.82 81 1014.7
20220623234148 68 0 0.0 1.0 0.00 1.30 0.82 82 1014.7
20220623233147 68 0 0.0 2.0 0.00 1.30 0.82 82 1014.7
20220623231644 69 0 0.0 3.0 0.00 1.31 0.82 81 1014.6
20220623230644 69 0 0.0 1.0 0.00 1.31 0.82 80 1014.5